Time;durP1;ratioP1;P1;durP2;ratioP2;P2;SDS_P1;SDS_P2;PMS_P1;PMS_P2;Temp;Humidity;BMP_temperature;BMP_pressure;BME280_temperature;BME280_humidity;BME280_pressure;Samples;Min_cycle;Max_cycle;Signal;HPM_P1;HPM_P2
2024/01/22 00:00:10;;;;;;;8.27;6.17;;;3.00;99.90;;;;;;5002095;28;20214;-61
2024/01/22 00:02:36;;;;;;;6.63;5.90;;;3.00;99.90;;;;;;4997240;28;20440;-62
2024/01/22 00:05:02;;;;;;;7.57;5.10;;;2.90;99.90;;;;;;4996008;28;20806;-62
2024/01/22 00:07:28;;;;;;;8.37;5.17;;;2.90;99.90;;;;;;4998679;28;20200;-62
2024/01/22 00:09:53;;;;;;;8.23;5.40;;;2.90;99.90;;;;;;5004983;28;20494;-61
2024/01/22 00:12:19;;;;;;;12.63;5.63;;;2.90;99.90;;;;;;4996484;28;20183;-60
2024/01/22 00:14:47;;;;;;;8.47;5.10;;;2.90;99.90;;;;;;4999571;28;20773;-61
2024/01/22 00:17:13;;;;;;;6.83;5.23;;;2.80;99.90;;;;;;4993687;28;20199;-61
2024/01/22 00:19:39;;;;;;;9.90;5.17;;;2.80;99.90;;;;;;4994197;28;20456;-61
2024/01/22 00:22:04;;;;;;;5.73;5.07;;;2.80;99.90;;;;;;4997567;28;20422;-61
2024/01/22 00:24:30;;;;;;;7.60;4.87;;;2.80;99.90;;;;;;5001268;28;20180;-61
2024/01/22 00:26:55;;;;;;;6.47;4.83;;;2.80;99.90;;;;;;5003376;28;20246;-61
2024/01/22 00:29:21;;;;;;;6.37;5.10;;;2.80;99.90;;;;;;5003531;28;20234;-60
2024/01/22 00:31:46;;;;;;;8.17;5.90;;;2.70;99.90;;;;;;5007861;28;20250;-62
2024/01/22 00:34:12;;;;;;;8.37;5.30;;;2.70;99.90;;;;;;4995807;28;20181;-62
2024/01/22 00:36:38;;;;;;;7.03;5.30;;;2.70;99.90;;;;;;4998364;28;20211;-61
2024/01/22 00:39:03;;;;;;;8.57;4.90;;;2.70;99.90;;;;;;4980890;28;20180;-61
2024/01/22 00:41:29;;;;;;;7.47;5.30;;;2.70;99.90;;;;;;5001533;28;20255;-61
2024/01/22 00:43:54;;;;;;;5.37;4.70;;;2.70;99.90;;;;;;5002037;28;20259;-61
2024/01/22 00:46:20;;;;;;;14.70;6.13;;;2.70;99.90;;;;;;5002980;28;20199;-61
2024/01/22 00:48:46;;;;;;;7.10;4.73;;;2.70;99.90;;;;;;5000836;28;20547;-61
2024/01/22 00:51:12;;;;;;;5.43;4.60;;;2.80;99.90;;;;;;4995995;28;20417;-61
2024/01/22 00:53:37;;;;;;;8.37;5.60;;;2.80;99.90;;;;;;4999584;28;20620;-61
2024/01/22 00:56:03;;;;;;;6.87;4.67;;;2.90;99.90;;;;;;4998860;28;20508;-61
2024/01/22 00:58:29;;;;;;;6.10;5.00;;;2.80;99.90;;;;;;5005619;28;20188;-62
2024/01/22 01:00:54;;;;;;;11.30;5.10;;;2.90;99.90;;;;;;5002169;28;20205;-61
2024/01/22 01:03:20;;;;;;;6.23;5.63;;;3.00;99.90;;;;;;5006862;28;20631;-59
2024/01/22 01:05:45;;;;;;;7.30;5.17;;;3.00;99.90;;;;;;5000150;28;20223;-60
2024/01/22 01:08:11;;;;;;;6.27;4.57;;;3.00;99.90;;;;;;4995680;28;20189;-61
2024/01/22 01:10:37;;;;;;;7.20;4.57;;;3.00;99.90;;;;;;5010006;28;20659;-62
2024/01/22 01:13:03;;;;;;;5.83;4.30;;;3.10;99.90;;;;;;5001374;28;20239;-62
2024/01/22 01:15:28;;;;;;;5.63;4.40;;;3.10;99.90;;;;;;5001953;28;20177;-61
2024/01/22 01:17:54;;;;;;;15.10;5.13;;;3.10;99.90;;;;;;5005100;28;20181;-61
2024/01/22 01:20:20;;;;;;;6.63;4.87;;;3.20;99.90;;;;;;4999772;28;20238;-61
2024/01/22 01:22:45;;;;;;;8.77;4.87;;;3.10;99.90;;;;;;5010007;28;20651;-62
2024/01/22 01:25:11;;;;;;;6.30;5.70;;;3.20;99.90;;;;;;4999285;28;20173;-62
2024/01/22 01:27:36;;;;;;;6.53;3.80;;;3.20;99.90;;;;;;5006574;28;20258;-62
2024/01/22 01:30:03;;;;;;;5.27;4.77;;;3.30;99.90;;;;;;5003127;28;20185;-62
2024/01/22 01:32:28;;;;;;;6.40;4.70;;;3.30;99.90;;;;;;5001754;28;20201;-62
2024/01/22 01:34:54;;;;;;;5.60;4.63;;;3.30;99.90;;;;;;5007012;28;20480;-59
2024/01/22 01:37:19;;;;;;;5.60;4.23;;;3.30;99.90;;;;;;5002349;28;20219;-60
2024/01/22 01:39:45;;;;;;;8.13;4.00;;;3.30;99.90;;;;;;4994993;28;20201;-61
2024/01/22 01:42:11;;;;;;;5.27;4.23;;;3.30;99.90;;;;;;4999028;28;20250;-61
2024/01/22 01:44:39;;;;;;;5.50;4.60;;;3.30;99.90;;;;;;4999256;28;20264;-61
2024/01/22 01:47:06;;;;;;;5.33;4.60;;;3.30;99.90;;;;;;5006009;28;20204;-61
2024/01/22 01:49:31;;;;;;;4.97;4.50;;;3.30;99.90;;;;;;4998759;28;20486;-61
2024/01/22 01:51:57;;;;;;;4.80;4.20;;;3.30;99.90;;;;;;4999383;28;20428;-61
2024/01/22 01:54:26;;;;;;;7.20;4.50;;;3.30;99.90;;;;;;4995854;28;20428;-61
2024/01/22 01:56:52;;;;;;;6.60;4.10;;;3.30;99.90;;;;;;4998210;28;20462;-61
2024/01/22 01:59:19;;;;;;;6.80;5.00;;;3.30;99.90;;;;;;5002425;28;20505;-61
2024/01/22 02:01:45;;;;;;;3.63;3.33;;;3.40;99.90;;;;;;4998109;28;20463;-61
2024/01/22 02:04:10;;;;;;;5.97;4.10;;;3.40;99.90;;;;;;5008548;28;20776;-61
2024/01/22 02:06:36;;;;;;;4.97;4.57;;;3.40;99.90;;;;;;4999391;28;20189;-61
2024/01/22 02:09:02;;;;;;;6.70;4.87;;;3.40;99.90;;;;;;4996439;28;20192;-61
2024/01/22 02:11:27;;;;;;;3.63;3.27;;;3.40;99.90;;;;;;5003687;28;20300;-61
2024/01/22 02:13:53;;;;;;;5.00;4.50;;;3.40;99.90;;;;;;4997020;28;20264;-61
2024/01/22 02:16:18;;;;;;;7.93;3.97;;;3.50;99.90;;;;;;5000805;28;20600;-61
2024/01/22 02:18:45;;;;;;;4.90;4.10;;;3.40;99.90;;;;;;4999693;28;20263;-60
2024/01/22 02:21:10;;;;;;;10.80;4.57;;;3.40;99.90;;;;;;5001118;28;20196;-61
2024/01/22 02:23:36;;;;;;;8.87;4.10;;;3.40;99.90;;;;;;4999928;28;20434;-61
2024/01/22 02:26:02;;;;;;;6.27;4.57;;;3.40;99.90;;;;;;4997648;28;20207;-61
2024/01/22 02:28:28;;;;;;;8.33;4.40;;;3.50;99.90;;;;;;4993525;28;20196;-61
2024/01/22 02:30:54;;;;;;;7.90;5.30;;;3.50;99.90;;;;;;4998738;28;20181;-61
2024/01/22 02:33:19;;;;;;;5.33;4.60;;;3.50;99.90;;;;;;4995886;28;20422;-61
2024/01/22 02:35:45;;;;;;;6.87;4.23;;;3.60;99.90;;;;;;5000291;28;20790;-61
2024/01/22 02:38:11;;;;;;;6.73;5.00;;;3.60;99.90;;;;;;5001958;28;20207;-62
2024/01/22 02:40:36;;;;;;;8.53;4.90;;;3.60;99.90;;;;;;5005105;28;20203;-60
2024/01/22 02:43:02;;;;;;;6.40;4.20;;;3.70;99.90;;;;;;4998244;28;20183;-60
2024/01/22 02:45:27;;;;;;;5.13;3.87;;;3.70;99.90;;;;;;4995085;28;20276;-58
2024/01/22 02:47:53;;;;;;;4.53;3.97;;;3.70;99.90;;;;;;4999986;28;20304;-60
2024/01/22 02:50:19;;;;;;;5.27;4.17;;;3.70;99.90;;;;;;4998385;28;20172;-60
2024/01/22 02:52:44;;;;;;;7.77;4.47;;;3.80;99.90;;;;;;5001006;28;20543;-60
2024/01/22 02:55:10;;;;;;;4.03;3.63;;;3.80;99.90;;;;;;5002034;28;20180;-61
2024/01/22 02:57:35;;;;;;;5.50;5.00;;;3.80;99.90;;;;;;4999748;28;20186;-60
2024/01/22 03:00:01;;;;;;;6.20;4.70;;;3.90;99.90;;;;;;4998492;28;20216;-60
2024/01/22 03:02:28;;;;;;;6.63;3.63;;;3.80;99.90;;;;;;4994683;28;20276;-60
2024/01/22 03:04:53;;;;;;;5.20;3.90;;;3.90;99.90;;;;;;4999298;28;20221;-61
2024/01/22 03:07:19;;;;;;;5.57;3.83;;;3.90;99.90;;;;;;4999282;28;20474;-60
2024/01/22 03:09:44;;;;;;;5.57;4.10;;;3.90;99.90;;;;;;4996687;28;20169;-61
2024/01/22 03:12:10;;;;;;;5.73;3.97;;;3.90;99.90;;;;;;5006794;28;20502;-61
2024/01/22 03:14:36;;;;;;;4.53;4.03;;;3.90;99.90;;;;;;4999604;28;20173;-62
2024/01/22 03:17:02;;;;;;;3.57;3.27;;;3.90;99.90;;;;;;5000554;28;20660;-61
2024/01/22 03:19:27;;;;;;;4.40;4.00;;;4.00;99.90;;;;;;4997109;28;20639;-60
2024/01/22 03:21:53;;;;;;;5.90;4.20;;;4.00;99.90;;;;;;4995197;28;20165;-60
2024/01/22 03:24:20;;;;;;;10.30;4.07;;;4.10;99.90;;;;;;5002113;28;20631;-59
2024/01/22 03:26:45;;;;;;;4.67;3.90;;;4.10;99.90;;;;;;4998256;28;20204;-60
2024/01/22 03:29:11;;;;;;;6.20;4.37;;;4.20;99.90;;;;;;5001487;28;20440;-60
2024/01/22 03:31:37;;;;;;;5.83;4.30;;;4.20;99.90;;;;;;4993949;28;20165;-61
2024/01/22 03:34:03;;;;;;;5.87;5.37;;;4.20;99.90;;;;;;4994590;28;20260;-61
2024/01/22 03:36:29;;;;;;;4.00;3.60;;;4.30;99.90;;;;;;4997091;28;20578;-60
2024/01/22 03:38:55;;;;;;;5.03;4.30;;;4.30;99.90;;;;;;4996089;28;20276;-59
2024/01/22 03:41:20;;;;;;;8.43;4.33;;;4.30;99.90;;;;;;5003096;28;20247;-61
2024/01/22 03:43:47;;;;;;;4.27;3.87;;;4.30;99.90;;;;;;4999816;28;20539;-61
2024/01/22 03:46:14;;;;;;;6.60;3.73;;;4.40;99.90;;;;;;5000645;28;20669;-60
2024/01/22 03:48:40;;;;;;;5.47;3.60;;;4.40;99.90;;;;;;4999240;28;20445;-61
2024/01/22 03:51:05;;;;;;;4.40;3.60;;;4.40;99.90;;;;;;4996089;28;20495;-61
2024/01/22 03:53:31;;;;;;;5.63;4.30;;;4.40;99.90;;;;;;4995525;28;20192;-61
2024/01/22 03:55:57;;;;;;;5.77;5.03;;;4.50;99.90;;;;;;4997230;28;20668;-61
2024/01/22 03:58:22;;;;;;;5.73;4.00;;;4.50;99.90;;;;;;5000759;28;20260;-60
2024/01/22 04:00:48;;;;;;;5.80;3.70;;;4.50;99.90;;;;;;5005982;28;20196;-60
2024/01/22 04:03:13;;;;;;;4.30;3.90;;;4.50;99.90;;;;;;4993439;28;20176;-60
2024/01/22 04:05:39;;;;;;;6.43;4.00;;;4.50;99.90;;;;;;4998187;28;20275;-60
2024/01/22 04:08:06;;;;;;;5.23;3.43;;;4.60;99.90;;;;;;4996354;28;20612;-60
2024/01/22 04:10:31;;;;;;;4.07;3.53;;;4.60;99.90;;;;;;4996902;28;20186;-60
2024/01/22 04:12:57;;;;;;;6.07;3.93;;;4.50;99.90;;;;;;5001906;28;20439;-59
2024/01/22 04:15:23;;;;;;;4.10;3.40;;;4.50;99.90;;;;;;5011099;28;20183;-60
2024/01/22 04:17:49;;;;;;;3.77;3.47;;;4.50;99.90;;;;;;4995549;28;20628;-61
2024/01/22 04:20:14;;;;;;;4.90;3.30;;;4.50;99.90;;;;;;4992261;28;20463;-60
2024/01/22 04:22:40;;;;;;;3.67;3.33;;;4.50;99.90;;;;;;5000209;28;20293;-61
2024/01/22 04:25:06;;;;;;;6.40;3.70;;;4.50;99.90;;;;;;4995201;28;20259;-60
2024/01/22 04:27:31;;;;;;;4.33;3.37;;;4.60;99.90;;;;;;4996897;28;20275;-60
2024/01/22 04:29:57;;;;;;;4.60;3.67;;;4.60;99.90;;;;;;5001651;28;20435;-60
2024/01/22 04:32:23;;;;;;;5.10;3.57;;;4.60;99.90;;;;;;5005836;28;20244;-58
2024/01/22 04:34:50;;;;;;;4.93;4.00;;;4.60;99.90;;;;;;4996768;28;20185;-58
2024/01/22 04:37:16;;;;;;;8.43;3.30;;;4.60;99.90;;;;;;4995326;28;20311;-60
2024/01/22 04:39:42;;;;;;;4.13;3.37;;;4.60;99.90;;;;;;4998581;28;20505;-60
2024/01/22 04:42:08;;;;;;;4.33;3.20;;;4.60;99.90;;;;;;4995901;28;20412;-60
2024/01/22 04:44:34;;;;;;;3.60;3.30;;;4.60;99.90;;;;;;4998718;28;20502;-61
2024/01/22 04:47:00;;;;;;;6.87;3.27;;;4.60;99.90;;;;;;5005499;28;20555;-61
2024/01/22 04:49:26;;;;;;;5.73;3.83;;;4.60;99.90;;;;;;4992999;28;20181;-61
2024/01/22 04:51:51;;;;;;;6.80;3.50;;;4.70;99.90;;;;;;4995447;28;20408;-59
2024/01/22 04:54:17;;;;;;;4.20;3.33;;;4.70;99.90;;;;;;4993657;28;20997;-62
2024/01/22 04:56:47;;;;;;;5.03;3.10;;;4.70;99.90;;;;;;4999835;28;20204;-59
2024/01/22 04:59:13;;;;;;;4.30;3.70;;;4.70;99.90;;;;;;4997645;28;20175;-59
2024/01/22 05:01:40;;;;;;;3.97;3.57;;;4.70;99.90;;;;;;4998348;28;20737;-62
2024/01/22 05:04:06;;;;;;;5.60;2.97;;;4.80;99.90;;;;;;5011778;28;20440;-60
2024/01/22 05:06:31;;;;;;;3.87;2.80;;;4.80;99.90;;;;;;4993395;28;20523;-60
2024/01/22 05:08:57;;;;;;;3.83;3.53;;;4.80;99.90;;;;;;5000614;28;20184;-59
2024/01/22 05:11:23;;;;;;;3.10;2.70;;;4.90;99.90;;;;;;4997960;28;20234;-60
2024/01/22 05:13:53;;;;;;;4.63;3.00;;;4.90;99.90;;;;;;5007531;28;20184;-60
2024/01/22 05:16:20;;;;;;;2.90;2.60;;;4.80;99.90;;;;;;5008218;28;20207;-60
2024/01/22 05:18:46;;;;;;;5.00;2.90;;;4.80;99.90;;;;;;5002128;28;20422;-60
2024/01/22 05:21:12;;;;;;;5.23;3.07;;;4.90;99.90;;;;;;5000448;28;20466;-59
2024/01/22 05:23:39;;;;;;;3.93;2.90;;;4.90;99.90;;;;;;4998386;28;20502;-59
2024/01/22 05:26:05;;;;;;;3.67;2.50;;;4.90;99.90;;;;;;5000805;28;20758;-62
2024/01/22 05:28:32;;;;;;;4.03;3.07;;;4.90;99.90;;;;;;4998694;28;20507;-61
2024/01/22 05:30:57;;;;;;;2.77;2.53;;;4.90;99.90;;;;;;5007412;28;20419;-59
2024/01/22 05:33:23;;;;;;;3.77;3.47;;;5.00;99.90;;;;;;5002225;28;20442;-58
2024/01/22 05:35:48;;;;;;;4.37;3.17;;;5.10;99.90;;;;;;5003402;28;20565;-60
2024/01/22 05:38:14;;;;;;;3.30;2.80;;;5.10;99.90;;;;;;4997422;28;20231;-60
2024/01/22 05:40:40;;;;;;;4.93;2.87;;;5.10;99.90;;;;;;4994860;28;20661;-60
2024/01/22 05:43:06;;;;;;;2.63;2.43;;;5.20;99.90;;;;;;5006096;28;20189;-61
2024/01/22 05:45:31;;;;;;;3.83;2.63;;;5.30;99.90;;;;;;4999478;28;20482;-60
2024/01/22 05:47:57;;;;;;;4.13;2.60;;;5.30;99.90;;;;;;5003603;28;20256;-60
2024/01/22 05:50:23;;;;;;;3.03;2.83;;;5.30;99.90;;;;;;5006502;28;20173;-60
2024/01/22 05:52:48;;;;;;;2.97;2.40;;;5.30;99.90;;;;;;4998509;28;20180;-60
2024/01/22 05:55:14;;;;;;;3.90;3.17;;;5.40;99.90;;;;;;4996618;28;20540;-60
2024/01/22 05:57:40;;;;;;;4.33;2.20;;;5.50;99.90;;;;;;4999856;28;20186;-60
2024/01/22 06:00:13;;;;;;;6.13;3.00;;;5.50;99.90;;;;;;4997471;28;20200;-60
2024/01/22 06:02:42;;;;;;;3.40;3.10;;;5.50;99.90;;;;;;5000008;28;20442;-60
2024/01/22 06:05:09;;;;;;;2.80;2.40;;;5.60;99.90;;;;;;5000477;28;20527;-60
2024/01/22 06:07:38;;;;;;;6.47;3.07;;;5.70;99.90;;;;;;5006427;28;20437;-60
2024/01/22 06:10:05;;;;;;;4.20;2.57;;;5.70;99.90;;;;;;4994633;28;20447;-61
2024/01/22 06:12:32;;;;;;;3.07;2.63;;;5.80;99.90;;;;;;4996320;28;20423;-61
2024/01/22 06:14:57;;;;;;;2.40;2.03;;;5.90;99.90;;;;;;4999766;28;20460;-61
2024/01/22 06:17:24;;;;;;;4.13;3.30;;;6.00;99.90;;;;;;5005598;28;20469;-62
2024/01/22 06:19:49;;;;;;;3.97;2.97;;;6.00;99.90;;;;;;5000522;28;20204;-61
2024/01/22 06:22:17;;;;;;;2.73;2.30;;;6.10;99.90;;;;;;5000081;28;20891;-61
2024/01/22 06:24:44;;;;;;;3.90;2.30;;;6.30;99.90;;;;;;4996679;28;20177;-61
2024/01/22 06:27:09;;;;;;;2.13;1.90;;;6.50;99.90;;;;;;4998196;28;20923;-62
2024/01/22 06:29:35;;;;;;;2.73;2.53;;;6.50;99.90;;;;;;4998640;28;20451;-59
2024/01/22 06:32:01;;;;;;;1.77;1.67;;;6.50;99.90;;;;;;5001617;28;20213;-61
2024/01/22 06:34:27;;;;;;;3.17;1.80;;;6.70;99.90;;;;;;4999278;28;20181;-62
2024/01/22 06:36:52;;;;;;;3.43;2.30;;;6.70;99.90;;;;;;5001696;28;21113;-62
2024/01/22 06:39:18;;;;;;;2.60;1.73;;;6.80;99.90;;;;;;4999761;28;20180;-62
2024/01/22 06:41:43;;;;;;;5.10;2.40;;;6.80;99.90;;;;;;4995239;28;20179;-59
2024/01/22 06:44:09;;;;;;;3.80;2.33;;;6.90;99.90;;;;;;4996407;28;20545;-61
2024/01/22 06:46:35;;;;;;;2.97;2.43;;;6.90;99.90;;;;;;5002374;28;20610;-62
2024/01/22 06:49:00;;;;;;;3.50;2.30;;;7.00;99.90;;;;;;5002022;28;20181;-61
2024/01/22 06:51:28;;;;;;;4.43;2.60;;;6.90;99.90;;;;;;5003634;28;20188;-61
2024/01/22 06:53:53;;;;;;;2.80;2.00;;;7.00;99.90;;;;;;5000645;28;20605;-61
2024/01/22 06:56:19;;;;;;;3.43;2.07;;;7.00;99.90;;;;;;4998244;28;20965;-59
2024/01/22 06:58:44;;;;;;;2.90;1.70;;;7.00;99.90;;;;;;4995975;28;20662;-60
2024/01/22 07:01:10;;;;;;;2.10;2.00;;;7.10;99.90;;;;;;4995601;28;20204;-60
2024/01/22 07:03:36;;;;;;;3.50;1.93;;;7.10;99.90;;;;;;4997148;28;20673;-61
2024/01/22 07:06:03;;;;;;;2.13;1.70;;;7.10;99.90;;;;;;5001195;28;20200;-61
2024/01/22 07:08:28;;;;;;;3.50;2.40;;;7.30;99.90;;;;;;5003662;28;20459;-61
2024/01/22 07:10:54;;;;;;;2.77;1.93;;;7.30;99.90;;;;;;5003483;28;21048;-61
2024/01/22 07:13:19;;;;;;;2.57;1.70;;;7.30;99.90;;;;;;4997301;28;20260;-61
2024/01/22 07:15:45;;;;;;;2.70;1.90;;;7.30;99.90;;;;;;5001179;28;20205;-62
2024/01/22 07:18:11;;;;;;;3.13;2.10;;;7.30;99.90;;;;;;5003251;28;20657;-62
2024/01/22 07:20:36;;;;;;;2.73;1.80;;;7.30;99.90;;;;;;4998192;28;20643;-61
2024/01/22 07:23:02;;;;;;;3.03;2.10;;;7.30;99.90;;;;;;4997527;28;20243;-62
2024/01/22 07:25:29;;;;;;;3.10;1.93;;;7.30;99.90;;;;;;5003184;28;20160;-62
2024/01/22 07:27:55;;;;;;;2.30;2.10;;;7.30;99.90;;;;;;4995185;28;20272;-62
2024/01/22 07:30:21;;;;;;;2.50;1.57;;;7.40;99.90;;;;;;4998881;28;20500;-61
2024/01/22 07:32:47;;;;;;;2.60;1.73;;;7.40;99.90;;;;;;4993152;28;20192;-61
2024/01/22 07:35:13;;;;;;;1.97;1.80;;;7.30;99.90;;;;;;4996102;28;20417;-62
2024/01/22 07:37:47;;;;;;;2.20;2.00;;;7.20;99.90;;;;;;4999997;28;20422;-62
2024/01/22 07:40:12;;;;;;;2.63;1.50;;;7.20;99.90;;;;;;4996935;28;20463;-62
2024/01/22 07:42:40;;;;;;;1.53;1.43;;;7.20;99.90;;;;;;5003646;28;20883;-62
2024/01/22 07:45:06;;;;;;;1.60;1.50;;;7.20;99.90;;;;;;4991633;28;20546;-62
2024/01/22 07:47:33;;;;;;;1.90;1.63;;;7.10;99.90;;;;;;4997442;28;20467;-61
2024/01/22 07:49:59;;;;;;;2.40;1.73;;;7.10;99.90;;;;;;5006119;28;20438;-62
2024/01/22 07:52:25;;;;;;;1.87;1.60;;;7.10;99.90;;;;;;5002591;28;20425;-61
2024/01/22 07:54:50;;;;;;;3.17;1.77;;;7.10;99.90;;;;;;5001311;28;20178;-64
2024/01/22 07:57:16;;;;;;;2.67;1.90;;;7.10;99.90;;;;;;5000981;28;20226;-66
2024/01/22 07:59:42;;;;;;;3.73;1.90;;;7.20;99.90;;;;;;5001575;28;20209;-63
2024/01/22 08:02:08;;;;;;;2.70;2.17;;;7.20;99.90;;;;;;5000649;28;20178;-61
2024/01/22 08:04:34;;;;;;;2.17;1.63;;;7.10;99.90;;;;;;5000587;28;20543;-61
2024/01/22 08:07:00;;;;;;;1.47;1.30;;;7.20;99.90;;;;;;5001928;28;20472;-61
2024/01/22 08:09:29;;;;;;;1.53;1.43;;;7.20;99.90;;;;;;4999576;28;20180;-62
2024/01/22 08:11:55;;;;;;;2.50;1.53;;;7.10;99.90;;;;;;4999803;28;20445;-60
2024/01/22 08:14:22;;;;;;;2.90;2.40;;;7.00;99.90;;;;;;5000853;28;20413;-64
2024/01/22 08:16:49;;;;;;;1.70;1.53;;;6.90;99.90;;;;;;5001476;28;20450;-62
2024/01/22 08:19:15;;;;;;;4.33;2.20;;;6.80;99.90;;;;;;5003890;28;20425;-61
2024/01/22 08:21:40;;;;;;;1.77;1.50;;;6.70;99.90;;;;;;5008974;28;20548;-60
2024/01/22 08:24:06;;;;;;;3.43;2.07;;;6.60;99.90;;;;;;4992684;28;20945;-59
2024/01/22 08:26:32;;;;;;;1.80;1.50;;;6.60;99.90;;;;;;4999062;28;20197;-61
2024/01/22 08:28:57;;;;;;;4.13;2.63;;;6.50;99.90;;;;;;4995260;28;20550;-62
2024/01/22 08:31:23;;;;;;;6.30;2.03;;;6.40;99.90;;;;;;4995737;28;20180;-62
2024/01/22 08:33:49;;;;;;;5.07;2.83;;;6.40;99.90;;;;;;4996245;28;20183;-60
2024/01/22 08:36:15;;;;;;;2.50;2.03;;;6.30;99.90;;;;;;5001599;28;20241;-60
2024/01/22 08:38:41;;;;;;;5.10;2.03;;;6.20;99.90;;;;;;4996856;28;20412;-57
2024/01/22 08:41:08;;;;;;;5.20;3.20;;;6.20;99.90;;;;;;5002562;28;20457;-60
2024/01/22 08:43:34;;;;;;;5.03;3.13;;;6.10;99.90;;;;;;5001336;28;20515;-59
2024/01/22 08:46:00;;;;;;;5.33;2.40;;;6.10;99.90;;;;;;4999615;28;20887;-60
2024/01/22 08:48:26;;;;;;;6.00;3.53;;;6.10;99.90;;;;;;5000732;28;20417;-61
2024/01/22 08:50:51;;;;;;;5.93;3.67;;;6.10;99.90;;;;;;5003854;28;20173;-61
2024/01/22 08:53:17;;;;;;;4.53;3.67;;;6.00;99.90;;;;;;5007765;28;20748;-61
2024/01/22 08:55:43;;;;;;;2.20;1.90;;;5.90;99.90;;;;;;5002075;28;20196;-61
2024/01/22 08:58:09;;;;;;;5.27;2.97;;;5.90;99.90;;;;;;4999881;28;20408;-59
2024/01/22 09:00:35;;;;;;;2.60;2.10;;;6.00;99.90;;;;;;5003510;28;20224;-60
2024/01/22 09:03:01;;;;;;;5.60;2.60;;;6.00;99.90;;;;;;4996925;28;20897;-60
2024/01/22 09:05:27;;;;;;;5.33;1.97;;;5.90;99.90;;;;;;4997912;28;20507;-60
2024/01/22 09:07:52;;;;;;;2.80;1.90;;;6.00;99.90;;;;;;5003662;28;20178;-60
2024/01/22 09:10:18;;;;;;;3.43;2.57;;;6.00;99.90;;;;;;5000663;28;20181;-60
2024/01/22 09:12:45;;;;;;;9.63;2.73;;;6.00;99.90;;;;;;5005185;28;20168;-59
2024/01/22 09:15:11;;;;;;;2.90;2.47;;;6.00;99.90;;;;;;4998964;28;20417;-60
2024/01/22 09:17:37;;;;;;;3.17;2.33;;;6.00;99.90;;;;;;5007747;28;20445;-60
2024/01/22 09:20:04;;;;;;;2.77;2.43;;;6.10;99.90;;;;;;4999173;28;20508;-59
2024/01/22 09:22:30;;;;;;;3.03;2.03;;;6.00;99.90;;;;;;4998916;28;20169;-60
2024/01/22 09:24:55;;;;;;;2.93;1.60;;;6.10;99.90;;;;;;4999017;28;20915;-60
2024/01/22 09:27:21;;;;;;;8.10;2.27;;;6.10;99.90;;;;;;4998340;28;20189;-60
2024/01/22 09:29:47;;;;;;;5.20;2.60;;;6.10;99.90;;;;;;5003137;28;20178;-58
2024/01/22 09:32:13;;;;;;;3.07;2.70;;;6.20;99.90;;;;;;5000397;28;20187;-61
2024/01/22 09:34:39;;;;;;;2.80;1.97;;;6.30;99.90;;;;;;4999370;28;20610;-61
2024/01/22 09:37:05;;;;;;;6.43;2.30;;;6.40;99.90;;;;;;4998657;28;20456;-61
2024/01/22 09:39:31;;;;;;;2.10;1.90;;;6.40;99.90;;;;;;4999369;28;20416;-61
2024/01/22 09:41:58;;;;;;;3.10;2.90;;;6.50;99.90;;;;;;5004849;28;20955;-61
2024/01/22 09:44:24;;;;;;;3.33;2.60;;;6.50;99.90;;;;;;4999071;28;20408;-61
2024/01/22 09:46:50;;;;;;;2.80;2.33;;;6.60;99.90;;;;;;5004933;28;20488;-61
2024/01/22 09:49:16;;;;;;;3.60;2.37;;;6.60;99.90;;;;;;4998814;28;20413;-62
2024/01/22 09:51:46;;;;;;;3.70;2.00;;;6.60;99.90;;;;;;4992996;28;20183;-62
2024/01/22 09:54:17;;;;;;;3.23;2.73;;;6.70;99.90;;;;;;4996325;28;20649;-60
2024/01/22 09:56:54;;;;;;;6.77;3.70;;;6.70;99.90;;;;;;4999587;28;20455;-58
2024/01/22 09:59:25;;;;;;;4.57;3.33;;;6.80;99.90;;;;;;4998524;28;20427;-61
2024/01/22 10:01:52;;;;;;;2.50;2.30;;;6.90;99.90;;;;;;5003227;28;20420;-63
2024/01/22 10:04:18;;;;;;;4.93;2.80;;;7.00;99.90;;;;;;5003111;28;20420;-61
2024/01/22 10:06:46;;;;;;;3.20;2.67;;;7.00;99.90;;;;;;4996320;28;20453;-60
2024/01/22 10:09:15;;;;;;;2.40;2.20;;;7.10;99.90;;;;;;4993331;28;20426;-68
2024/01/22 10:11:47;;;;;;;3.03;2.33;;;7.20;99.90;;;;;;4997303;28;20577;-63
2024/01/22 10:14:13;;;;;;;1.93;1.83;;;7.30;99.90;;;;;;4997513;28;20998;-63
2024/01/22 10:16:39;;;;;;;3.67;1.60;;;7.40;99.90;;;;;;5010618;28;20443;-61
2024/01/22 10:19:07;;;;;;;2.07;1.97;;;7.40;99.90;;;;;;5000329;28;20237;-60
2024/01/22 10:21:33;;;;;;;2.13;1.53;;;7.50;99.90;;;;;;4998309;28;20462;-59
2024/01/22 10:24:01;;;;;;;11.03;2.47;;;7.50;99.90;;;;;;4997408;28;20445;-61
2024/01/22 10:26:28;;;;;;;3.07;2.03;;;7.60;99.90;;;;;;4993757;28;20933;-62
2024/01/22 10:28:54;;;;;;;1.80;1.70;;;7.60;99.90;;;;;;4998276;28;20497;-60
2024/01/22 10:31:20;;;;;;;2.37;1.70;;;7.70;99.90;;;;;;4997006;28;20423;-62
2024/01/22 10:33:46;;;;;;;1.77;1.53;;;7.80;99.90;;;;;;5007677;28;20474;-62
2024/01/22 10:36:16;;;;;;;2.47;1.90;;;7.80;99.90;;;;;;5002022;28;20459;-60
2024/01/22 10:38:46;;;;;;;2.30;2.10;;;7.90;99.90;;;;;;4999440;28;20415;-62
2024/01/22 10:41:19;;;;;;;1.30;1.20;;;7.90;99.90;;;;;;4998289;28;20907;-59
2024/01/22 10:43:45;;;;;;;1.80;1.50;;;8.00;99.90;;;;;;4995447;28;20410;-59
2024/01/22 10:46:12;;;;;;;2.23;1.73;;;8.10;99.90;;;;;;4999972;28;20452;-61
2024/01/22 10:48:38;;;;;;;6.03;2.00;;;8.10;99.90;;;;;;5001320;28;20806;-60
2024/01/22 10:51:07;;;;;;;1.93;1.67;;;8.20;99.90;;;;;;5000300;28;20477;-59
2024/01/22 10:53:35;;;;;;;1.53;1.43;;;8.30;99.90;;;;;;4997918;28;20447;-60
2024/01/22 10:56:04;;;;;;;2.10;1.40;;;8.30;99.90;;;;;;5004580;28;20520;-62
2024/01/22 10:58:41;;;;;;;1.50;1.40;;;8.30;99.90;;;;;;5002049;28;20429;-59
2024/01/22 11:01:14;;;;;;;2.80;1.83;;;8.40;99.90;;;;;;5005847;28;20462;-58
2024/01/22 11:03:48;;;;;;;2.10;1.70;;;8.40;99.90;;;;;;5010601;28;20532;-61
2024/01/22 11:06:19;;;;;;;2.00;1.47;;;8.40;99.90;;;;;;5008996;28;20449;-60
2024/01/22 11:08:52;;;;;;;1.80;1.53;;;8.50;99.90;;;;;;5010941;28;20721;-60
2024/01/22 11:11:23;;;;;;;2.77;1.93;;;8.50;99.90;;;;;;5011180;28;20431;-60
2024/01/22 11:13:56;;;;;;;1.87;1.70;;;8.50;99.90;;;;;;5007883;28;20493;-62
2024/01/22 11:16:22;;;;;;;1.60;1.50;;;8.60;99.90;;;;;;5011129;28;20883;-61
2024/01/22 11:18:58;;;;;;;2.10;1.50;;;8.70;99.90;;;;;;5010733;28;20418;-62
2024/01/22 11:21:24;;;;;;;1.47;1.37;;;8.70;99.90;;;;;;5008708;28;20485;-62
2024/01/22 11:24:11;;;;;;;2.47;1.40;;;8.70;99.90;;;;;;5014665;28;20426;-62
2024/01/22 11:26:44;;;;;;;1.60;1.50;;;8.70;99.90;;;;;;5010751;28;20985;-62
2024/01/22 11:29:14;;;;;;;2.77;1.93;;;8.80;99.90;;;;;;5012965;28;20419;-62
2024/01/22 11:31:40;;;;;;;2.20;1.67;;;8.80;99.90;;;;;;5010842;28;20422;-64
2024/01/22 11:34:05;;;;;;;2.37;1.40;;;8.80;99.90;;;;;;5008458;28;20446;-62
2024/01/22 11:36:55;;;;;;;4.57;1.93;;;8.80;99.90;;;;;;5010630;28;20206;-60
2024/01/22 11:39:35;;;;;;;1.30;1.20;;;8.90;99.90;;;;;;5011635;28;20175;-62
2024/01/22 11:42:16;;;;;;;1.50;1.40;;;8.90;99.90;;;;;;5009665;28;20521;-62
2024/01/22 11:44:48;;;;;;;2.90;1.50;;;9.00;99.90;;;;;;5010607;28;20813;-57
2024/01/22 11:47:14;;;;;;;1.63;1.30;;;9.00;99.90;;;;;;5010496;28;20815;-61
2024/01/22 11:49:40;;;;;;;2.40;1.33;;;9.00;99.90;;;;;;5010888;28;20919;-60
2024/01/22 11:52:13;;;;;;;2.40;1.30;;;9.10;99.90;;;;;;5016247;28;20506;-63
2024/01/22 11:54:58;;;;;;;3.57;1.50;;;9.10;99.90;;;;;;5010418;28;20175;-59
2024/01/22 11:57:26;;;;;;;1.83;1.73;;;9.10;99.90;;;;;;5014806;28;20959;-60
2024/01/22 12:00:05;;;;;;;1.60;1.37;;;9.10;99.90;;;;;;5017822;28;20505;-62
2024/01/22 12:02:34;;;;;;;1.53;1.43;;;9.10;99.90;;;;;;5004025;28;20414;-61
2024/01/22 12:05:01;;;;;;;5.43;1.50;;;9.20;99.90;;;;;;5003217;28;20430;-62
2024/01/22 12:07:47;;;;;;;1.43;1.33;;;9.20;99.90;;;;;;5002781;28;20516;-60
2024/01/22 12:10:26;;;;;;;4.20;1.60;;;9.20;99.90;;;;;;5011352;28;20418;-62
2024/01/22 12:12:56;;;;;;;1.83;1.70;;;9.20;99.90;;;;;;5007367;28;20580;-62
2024/01/22 12:15:24;;;;;;;3.70;1.97;;;9.30;99.90;;;;;;5008896;28;20540;-59
2024/01/22 12:17:50;;;;;;;2.87;1.53;;;9.30;99.90;;;;;;5010117;28;20450;-59
2024/01/22 12:20:18;;;;;;;1.93;1.30;;;9.30;99.90;;;;;;5010075;28;20463;-58
2024/01/22 12:22:43;;;;;;;1.87;1.30;;;9.30;99.90;;;;;;5008776;28;20427;-58
2024/01/22 12:25:13;;;;;;;2.77;1.90;;;9.30;99.90;;;;;;5007324;28;20482;-61
2024/01/22 12:27:39;;;;;;;2.10;1.40;;;9.40;99.90;;;;;;5009978;28;20269;-60
2024/01/22 12:30:12;;;;;;;1.57;1.40;;;9.40;99.90;;;;;;5009604;28;20421;-59
2024/01/22 12:32:38;;;;;;;1.57;1.30;;;9.40;99.90;;;;;;5010694;28;20192;-56
2024/01/22 12:35:06;;;;;;;2.57;1.50;;;9.40;99.90;;;;;;5009453;28;20430;-57
2024/01/22 12:37:34;;;;;;;3.53;2.17;;;9.40;99.90;;;;;;5009436;28;20458;-58
2024/01/22 12:40:14;;;;;;;1.83;1.50;;;9.40;99.90;;;;;;5008827;28;20905;-61
2024/01/22 12:42:43;;;;;;;1.77;1.43;;;9.40;99.90;;;;;;5009350;28;20454;-61
2024/01/22 12:45:14;;;;;;;2.60;1.43;;;9.30;99.90;;;;;;5014651;28;20436;-62
2024/01/22 12:47:40;;;;;;;1.33;1.10;;;9.30;99.90;;;;;;5009619;28;20502;-62
2024/01/22 12:50:07;;;;;;;1.97;1.27;;;9.40;99.90;;;;;;5009693;28;20414;-62
2024/01/22 12:52:33;;;;;;;2.80;1.80;;;9.40;99.90;;;;;;5008874;28;20466;-63
2024/01/22 12:55:01;;;;;;;1.30;1.20;;;9.40;99.90;;;;;;5009607;28;20491;-61